Home > Products > Valid Products > TAF

000
FTUS46 KMTR 171700
TAFOAK
TAF
KOAK 171735Z 1718/1824 24008KT P6SM SCT250
     FM172000 29015KT P6SM SKC
     FM180300 29009KT P6SM FEW010
     FM180600 29005KT P6SM BKN012
     FM181800 27005KT P6SM FEW015=



000
FTUS46 KMTR 171700
TAFSJC
TAF
KSJC 171735Z 1718/1818 31011KT P6SM SKC
     FM180400 VRB03KT P6SM SKC=



000
FTUS46 KMTR 171700
TAFSTS
TAF
KSTS 171735Z 1718/1818 VRB03KT P6SM FEW250
     FM172100 17010KT P6SM SKC
     FM180400 VRB03KT P6SM SKC=



000
FTUS46 KMTR 171700
TAFSNS
TAF
KSNS 171735Z 1718/1818 VRB04KT P6SM BKN015
     FM171900 30012KT P6SM SCT010
     FM180400 VRB04KT P6SM BKN008=



000
FTUS46 KMTR 171700
TAFSFO
TAF
KSFO 171735Z 1718/1824 29018G24KT P6SM FEW012 SCT200
     FM172100 28021G30KT P6SM SCT200
     FM180500 29012KT P6SM BKN012
     FM181700 27010KT P6SM FEW015=



000
FTUS46 KMTR 171700
TAFMRY
TAF
KMRY 171735Z 1718/1818 24015KT P6SM OVC007
     FM172000 26016KT P6SM OVC012
     FM180300 24004KT P6SM BKN009
     FM180600 VRB04KT P6SM OVC006=



000
FTUS46 KMTR 171600 AAA
TAFSNS
TAF AMD
KSNS 171627Z 1716/1812 VRB04KT P6SM BKN007 OVC010
     FM171900 30012KT P6SM SCT010
     FM180400 VRB04KT P6SM BKN008=



000
FTUS46 KMTR 171500 AAA
TAFMRY
TAF AMD
KMRY 171543Z 1716/1812 VRB04KT P6SM BKN007
     FM171900 26010KT P6SM SCT010
     FM180300 24004KT P6SM BKN009
     FM180600 21004KT P6SM OVC007=



000
FTUS46 KMTR 171500 AAA
TAFSFO
TAF AMD
KSFO 171503Z 1715/1818 28008KT P6SM FEW010
     FM172200 29018G24KT P6SM FEW012
     FM180400 29012KT P6SM FEW012
     FM180900 29008KT P6SM BKN012=



000
FTUS46 KMTR 171100
TAFMRY
TAF
KMRY 171137Z 1712/1812 VRB03KT P6SM BKN007
     FM171500 25004KT P6SM FEW012
     FM171900 26010KT P6SM SKC
     FM180300 24004KT P6SM BKN009
     FM180600 21004KT P6SM OVC007=



000
FTUS46 KMTR 171100
TAFSJC
TAF
KSJC 171137Z 1712/1812 VRB03KT P6SM SKC
     FM172000 31011KT P6SM SKC
     FM180300 30007KT P6SM SKC=



000
FTUS46 KMTR 171100
TAFSFO
TAF
KSFO 171137Z 1712/1818 28006KT P6SM SKC
     FM171700 04005KT P6SM FEW010
     FM172200 29018G24KT P6SM FEW012
     FM180400 29012KT P6SM FEW012
     FM180900 29008KT P6SM BKN012=



000
FTUS46 KMTR 171100
TAFOAK
TAF
KOAK 171137Z 1712/1818 29005KT P6SM SKC
     FM172000 29015KT P6SM SKC
     FM180300 29009KT P6SM FEW010
     FM180800 29005KT P6SM BKN012=



000
FTUS46 KMTR 171100
TAFSTS
TAF
KSTS 171137Z 1712/1812 VRB03KT P6SM SKC
     FM171600 17010KT P6SM SKC
     FM180400 VRB03KT P6SM SKC=



000
FTUS46 KMTR 171100
TAFSNS
TAF
KSNS 171137Z 1712/1812 14004KT P6SM BKN007
     FM171600 VRB03KT P6SM SKC
     FM171900 30012KT P6SM SKC
     FM180400 24004KT P6SM BKN009
     FM180800 VRB03KT P6SM OVC006=



000
FTUS46 KMTR 170900 AAA
TAFSFO
TAF AMD
KSFO 170907Z 1709/1812 28006KT P6SM SKC
     FM171700 04005KT P6SM FEW010
     FM172200 29012KT P6SM FEW012
     FM180400 29007KT P6SM FEW012=



000
FTUS46 KMTR 170500
TAFSNS
TAF
KSNS 170520Z 1706/1806 27008KT P6SM FEW011
      TEMPO 1708/1712 BKN007
     FM171200 14004KT P6SM BKN007
     FM171700 29009KT P6SM SKC
     FM180400 24004KT P6SM BKN009=



000
FTUS46 KMTR 170500
TAFMRY
TAF
KMRY 170520Z 1706/1806 24004KT P6SM FEW010
      TEMPO 1708/1712 BKN007
     FM171200 VRB03KT P6SM BKN007
     FM171600 25004KT P6SM FEW012
     FM180300 VRB03KT P6SM BKN009=



000
FTUS46 KMTR 170500
TAFSJC
TAF
KSJC 170520Z 1706/1806 31007KT P6SM SKC
     FM170700 VRB03KT P6SM FEW012
     FM171700 31011KT P6SM SKC
     FM180300 30007KT P6SM SKC=



000
FTUS46 KMTR 170500
TAFSFO
TAF
KSFO 170520Z 1706/1812 28012KT P6SM SKC
     FM171000 28008KT P6SM SCT012
      TEMPO 1712/1716 BKN010
     FM171700 04005KT P6SM FEW010
     FM172200 29012KT P6SM FEW012
     FM180400 29007KT P6SM FEW012=



000
FTUS46 KMTR 170500
TAFOAK
TAF
KOAK 170520Z 1706/1812 29010KT P6SM SKC
     FM171000 29006KT P6SM SCT012
      TEMPO 1717/1719 BKN012
     FM172000 29012KT P6SM FEW012
     FM180300 29009KT P6SM FEW010=



000
FTUS46 KMTR 170500
TAFSTS
TAF
KSTS 170520Z 1706/1806 VRB03KT P6SM SKC
     FM171600 17007KT P6SM SKC
     FM180400 VRB03KT P6SM SKC=



000
FTUS46 KMTR 170300 AAA
TAFSFO
TAF AMD
KSFO 170329Z 1703/1806 28018G26KT P6SM FEW250
     FM170500 28012KT P6SM SKC
     FM171000 28008KT P6SM SCT012
      TEMPO 1712/1716 BKN010
     FM171700 04005KT P6SM FEW010
     FM172200 29012KT P6SM FEW012
     FM180400 29007KT P6SM FEW012=



000
FTUS46 KMTR 162300
TAFMRY
TAF
KMRY 162320Z 1700/1724 29010KT P6SM FEW250
     FM170200 24004KT P6SM FEW010
      TEMPO 1708/1712 BKN007
     FM171200 VRB03KT P6SM BKN007
     FM171600 25004KT P6SM FEW012=



000
FTUS46 KMTR 162300
TAFSFO
TAF
KSFO 162320Z 1700/1806 28018G26KT P6SM FEW250
     FM170500 28012KT P6SM SKC
     FM171000 28008KT P6SM SCT012
      TEMPO 1712/1716 BKN010
     FM171700 04005KT P6SM FEW010
     FM172200 29012KT P6SM FEW012
     FM180400 29007KT P6SM FEW012=



000
FTUS46 KMTR 162300
TAFSTS
TAF
KSTS 162320Z 1700/1724 19010KT P6SM FEW250
     FM170400 VRB03KT P6SM SKC
     FM171600 17007KT P6SM SKC=



000
FTUS46 KMTR 162300
TAFSJC
TAF
KSJC 162320Z 1700/1724 31012KT P6SM FEW250
     FM170300 31007KT P6SM SKC
     FM170700 VRB03KT P6SM FEW012
     FM171700 31011KT P6SM SKC=



000
FTUS46 KMTR 162300
TAFSNS
TAF
KSNS 162320Z 1700/1724 28012KT P6SM FEW250
     FM170400 27008KT P6SM FEW011
      TEMPO 1708/1712 BKN007
     FM171200 14004KT P6SM BKN007
     FM171700 29009KT P6SM SKC=



000
FTUS46 KMTR 162300
TAFOAK
TAF
KOAK 162320Z 1700/1806 28016KT P6SM FEW250
     FM170200 29010KT P6SM SKC
     FM171000 29006KT P6SM SCT012
      TEMPO 1717/1719 BKN012
     FM172000 29012KT P6SM FEW012=



000
FTUS46 KMTR 162000 AAA
TAFSTS
TAF AMD
KSTS 162013Z 1620/1718 27005KT P6SM SCT200
     FM162200 29010KT P6SM SKC
     FM170400 VRB03KT P6SM SKC
     FM171200 00000KT 1SM BR OVC002
     FM171600 VRB03KT P6SM SKC=



000
FTUS46 KMTR 162000 AAA
TAFSNS
TAF AMD
KSNS 162010Z 1620/1718 28012KT P6SM SKC
     FM170400 27008KT P6SM SCT015
     FM170700 27006KT P6SM BKN015
     FM171000 VRB03KT P6SM OVC007=



000
FTUS46 KMTR 161700
TAFSNS
TAF
KSNS 161732Z 1618/1718 26006KT P6SM FEW015
     FM162100 27012KT P6SM SKC
     FM170400 27008KT P6SM SCT015
     FM170700 27006KT P6SM BKN015
     FM171000 VRB03KT P6SM OVC007=



000
FTUS46 KMTR 161700
TAFMRY
TAF
KMRY 161732Z 1618/1718 29005KT P6SM FEW015
     FM162000 29010KT P6SM FEW020
     FM170400 24004KT P6SM SCT015
     FM170800 19004KT P6SM BKN015
     FM171200 22003KT P6SM OVC007
     FM171600 25004KT P6SM FEW012=



000
FTUS46 KMTR 161700
TAFSFO
TAF
KSFO 161732Z 1618/1724 03004KT P6SM FEW200
     FM162000 28010KT P6SM FEW200
     FM162300 28020KT P6SM FEW200
     FM170500 28012KT P6SM SKC
     FM171000 28008KT P6SM SCT012
      TEMPO 1712/1716 BKN010
     FM171700 04005KT P6SM FEW010=



000
FTUS46 KMTR 161700
TAFSJC
TAF
KSJC 161732Z 1618/1718 VRB03KT P6SM FEW150
     FM162000 31012KT P6SM FEW200
     FM170300 31007KT P6SM SKC
     FM170700 VRB03KT P6SM FEW012
     FM171400 VRB03KT P6SM BKN015
     FM171700 VRB03KT P6SM FEW015=



000
FTUS46 KMTR 161700
TAFSTS
TAF
KSTS 161732Z 1618/1718 VRB03KT P6SM SCT200
     FM162000 18010KT P6SM SCT200
     FM170400 VRB03KT P6SM SKC
     FM171200 00000KT 1SM BR OVC002
     FM171600 VRB03KT P6SM SKC=



000
FTUS46 KMTR 161700
TAFOAK
TAF
KOAK 161732Z 1618/1724 23004KT P6SM FEW010
     FM162000 26010KT P6SM SKC
     FM162200 28016KT P6SM SKC
     FM170200 29010KT P6SM SKC
     FM171000 29006KT P6SM SCT012
     FM171200 25004KT P6SM BKN010
     FM171700 25005KT P6SM FEW010=



000
FTUS46 KMTR 161500 AAA
TAFSNS
TAF AMD
KSNS 161527Z 1615/1712 26005KT 6SM BR OVC006
     FM161700 26006KT P6SM SCT015
     FM161900 27012KT P6SM SKC
     FM170400 27008KT P6SM SCT015
     FM170600 27006KT P6SM BKN015=



000
FTUS46 KMTR 161500 AAA
TAFSFO
TAF AMD
KSFO 161501Z 1615/1718 29004KT P6SM SKC
     FM161700 28010KT P6SM FEW010
     FM162000 28020KT P6SM FEW200
     FM170500 28012KT P6SM SKC
     FM171000 28008KT P6SM SCT012
      TEMPO 1712/1716 BKN012=



000
FTUS46 KMTR 161400 AAC
TAFSTS
TAF AMD
KSTS 161448Z 1615/1712 VRB03KT P6SM BCFG SKC
      TEMPO 1615/1616 1/2SM FG
     FM161700 VRB03KT P6SM SKC
     FM162000 18010KT P6SM SCT200
     FM170300 14005KT P6SM SKC=



000
FTUS46 KMTR 161300 AAB
TAFSTS
TAF AMD
KSTS 161338Z 1614/1712 VRB03KT 3SM BR BKN003
      TEMPO 1614/1616 1/2SM FG
     FM161700 VRB03KT P6SM SKC
     FM162000 18010KT P6SM SCT200
     FM170300 14005KT P6SM SKC=



000
FTUS46 KMTR 161300 AAA
TAFSTS
TAF AMD
KSTS 161323Z 1613/1712 VRB03KT 3SM BR BKN003
     FM161700 VRB03KT P6SM SKC
     FM162000 18010KT P6SM SCT200
     FM170300 14005KT P6SM SKC=



000
FTUS46 KMTR 161100
TAFSFO
TAF
KSFO 161131Z 1612/1718 25006KT P6SM SCT015
     FM161700 28010KT P6SM FEW010
     FM162000 28020KT P6SM FEW200
     FM170500 28012KT P6SM SKC
     FM171000 28008KT P6SM SCT012
      TEMPO 1712/1716 BKN012=



000
FTUS46 KMTR 161100
TAFOAK
TAF
KOAK 161131Z 1612/1718 VRB04KT P6SM SCT012
     FM161500 34004KT P6SM FEW010
     FM162100 28016KT P6SM SKC
     FM170400 30005KT P6SM SKC
     FM171000 29006KT P6SM SCT012
      TEMPO 1712/1716 BKN012=



000
FTUS46 KMTR 161100
TAFSTS
TAF
KSTS 161131Z 1612/1712 34004KT P6SM SKC
     FM162000 18010KT P6SM SCT200
     FM170300 14005KT P6SM SKC=



000
FTUS46 KMTR 161100
TAFSJC
TAF
KSJC 161131Z 1612/1712 VRB03KT P6SM SKC
     FM162000 31012KT P6SM FEW200
     FM170300 31007KT P6SM SKC=



000
FTUS46 KMTR 161100
TAFSNS
TAF
KSNS 161131Z 1612/1712 26005KT P6SM OVC012
     FM161700 26006KT P6SM SCT015
     FM161900 27012KT P6SM SKC
     FM170400 27008KT P6SM SCT015
     FM170600 27006KT P6SM BKN015=



000
FTUS46 KMTR 161100
TAFMRY
TAF
KMRY 161131Z 1612/1712 20005KT P6SM OVC012
     FM161800 29010KT P6SM FEW015
     FM170400 24004KT P6SM SCT015
     FM170600 19004KT P6SM BKN015=



000
FTUS46 KMTR 160900 AAA
TAFSFO
TAF AMD
KSFO 160902Z 1609/1712 29008KT P6SM FEW010
     FM162000 28020KT P6SM FEW200
     FM170500 27006KT P6SM SKC=



000
FTUS46 KMTR 160500
TAFMRY
TAF
KMRY 160533Z 1606/1706 20006KT P6SM OVC015
     FM161700 27005KT P6SM BKN015
     FM161800 29010KT P6SM FEW015
     FM170300 24004KT P6SM BKN015=



000
FTUS46 KMTR 160500
TAFSFO
TAF
KSFO 160533Z 1606/1712 29012KT P6SM FEW200
     FM161000 28008KT P6SM FEW015
     FM162000 28020KT P6SM FEW200
     FM170500 27006KT P6SM SKC=



000
FTUS46 KMTR 160500
TAFSJC
TAF
KSJC 160533Z 1606/1706 VRB03KT P6SM SKC
     FM161100 VRB03KT P6SM BKN012
     FM161500 VRB03KT P6SM FEW012
     FM162000 31012KT P6SM FEW200
     FM170300 31007KT P6SM SKC=



000
FTUS46 KMTR 160500
TAFOAK
TAF
KOAK 160533Z 1606/1712 29005KT P6SM FEW010
     FM161000 03004KT P6SM BKN010
     FM161500 34004KT P6SM FEW010
     FM162100 28016KT P6SM SKC
     FM170400 30005KT P6SM SKC=



000
FTUS46 KMTR 160500
TAFSTS
TAF
KSTS 160533Z 1606/1706 VRB03KT P6SM SKC
     FM161200 34004KT P6SM SKC
     FM162000 18010KT P6SM SCT200
     FM170300 14005KT P6SM SKC=



000
FTUS46 KMTR 160500
TAFSNS
TAF
KSNS 160533Z 1606/1706 28008KT P6SM BKN015
     FM161000 29005KT 4SM BR OVC010
     FM161700 26004KT 6SM BR OVC015
     FM161800 28012KT P6SM SKC
     FM170300 27008KT P6SM BKN015=



000
FTUS46 KMTR 160300 AAA
TAFSFO
TAF AMD
KSFO 160301Z 1603/1706 27012KT P6SM FEW015 SCT200
     FM160400 29012KT P6SM FEW012
     FM161000 28008KT P6SM FEW010
     FM162000 28020KT P6SM FEW200=



000
FTUS46 KMTR 152300
TAFMRY
TAF
KMRY 152320Z 1600/1624 30010KT P6SM FEW015
     FM160200 24004KT P6SM BKN012
     FM160400 22006KT P6SM OVC010
     FM161700 27005KT P6SM BKN015
     FM161800 29010KT P6SM FEW015=



000
FTUS46 KMTR 152300
TAFSTS
TAF
KSTS 152320Z 1600/1624 16008KT P6SM SCT200
     FM160500 VRB03KT P6SM SKC
     FM161200 34004KT P6SM SKC
     FM162000 16008KT P6SM SCT200=



000
FTUS46 KMTR 152300
TAFSNS
TAF
KSNS 152320Z 1600/1624 29012G19KT P6SM SKC
     FM160300 29008KT P6SM BKN010
     FM161000 29005KT 4SM BR OVC010
     FM161700 26004KT 6SM BR OVC015
     FM161800 28012KT P6SM SKC=



000
FTUS46 KMTR 152300
TAFSFO
TAF
KSFO 152320Z 1600/1706 29020G25KT P6SM FEW014 SCT200
     FM160400 29012KT P6SM FEW010
     FM161000 28008KT P6SM FEW010
     FM162000 28020KT P6SM FEW200=



000
FTUS46 KMTR 152300
TAFSJC
TAF
KSJC 152320Z 1600/1624 30010KT P6SM FEW140
     FM160400 31005KT P6SM SKC
     FM160600 VRB03KT P6SM SKC
     FM161100 VRB03KT P6SM BKN012
     FM161500 VRB03KT P6SM FEW012
     FM162000 31012KT P6SM FEW200=



000
FTUS46 KMTR 152300
TAFOAK
TAF
KOAK 152320Z 1600/1706 28012KT P6SM FEW200
     FM160400 29008KT P6SM FEW010
     FM161000 03004KT P6SM BKN010
     FM161500 34004KT P6SM FEW010
     FM162100 28014KT P6SM SKC=



000
FTUS46 KMTR 152100 AAA
TAFSFO
TAF AMD
KSFO 152100Z 1521/1624 30015KT P6SM FEW010
     FM152300 29020G25KT P6SM FEW010
     FM160400 29012KT P6SM FEW010
     FM161000 28008KT P6SM FEW010=



000
FTUS46 KMTR 152100 AAA
TAFSNS
TAF AMD
KSNS 152100Z 1521/1618 28012G19KT P6SM SKC
     FM160300 29008KT P6SM BKN010
     FM161000 29005KT 4SM BR OVC007
     FM161700 26004KT 6SM BR OVC015=



000
FTUS46 KMTR 151700 AAA
TAFSTS
TAF AMD
KSTS 151752Z 1518/1618 24003KT P6SM SCT010
     FM151900 17005KT P6SM SKC
     FM152300 19008KT P6SM SKC
     FM160500 VRB03KT P6SM SKC
     FM161200 34004KT P6SM SKC=



000
FTUS46 KMTR 151700
TAFSJC
TAF
KSJC 151720Z 1518/1618 32005KT P6SM FEW015
     FM152100 32010KT P6SM SKC
     FM160400 31005KT P6SM SKC
     FM160600 VRB03KT P6SM SKC
     FM161100 VRB03KT P6SM BKN012
     FM161500 VRB03KT P6SM FEW012=



000
FTUS46 KMTR 151700
TAFOAK
TAF
KOAK 151720Z 1518/1624 26005KT P6SM FEW012
     FM152000 29015KT P6SM FEW010
     FM160400 29008KT P6SM FEW010
     FM161000 03004KT P6SM BKN010
     FM161500 34004KT P6SM FEW010
     FM162100 28010KT P6SM SKC=



000
FTUS46 KMTR 151700
TAFSFO
TAF
KSFO 151720Z 1518/1624 03005KT P6SM FEW010
     FM152100 29010G20KT P6SM FEW010
     FM152300 29020G25KT P6SM FEW010
     FM160400 29012KT P6SM FEW010
     FM161000 28008KT P6SM FEW010=



000
FTUS46 KMTR 151700
TAFMRY
TAF
KMRY 151720Z 1518/1618 24005KT P6SM SCT010
      TEMPO 1518/1520 BKN010
     FM152100 27010KT P6SM SCT015
     FM160200 24004KT P6SM BKN012
     FM160400 22006KT P6SM OVC005
     FM161700 27005KT P6SM BKN015=



000
FTUS46 KMTR 151700
TAFSTS
TAF
KSTS 151720Z 1518/1618 26004KT P6SM BKN008
     FM151900 17005KT P6SM SKC
     FM152300 19008KT P6SM SKC
     FM160500 VRB03KT P6SM SKC
     FM161200 34004KT P6SM SKC=



000
FTUS46 KMTR 151700
TAFSNS
TAF
KSNS 151720Z 1518/1618 VRB03KT P6SM SCT005 OVC010
     FM151900 30012G18KT P6SM SKC
     FM160300 29008KT P6SM BKN010
     FM161000 29005KT 4SM BR OVC007
     FM161700 26004KT 6SM BR OVC015=



000
FTUS46 KMTR 151500 AAA
TAFSTS
TAF AMD
KSTS 151502Z 1515/1612 VRB03KT 3SM BR OVC007
     FM151700 31012KT P6SM FEW250
     FM160300 30007KT P6SM SKC=



000
FTUS46 KMTR 151500 AAA
TAFSFO
TAF AMD
KSFO 151501Z 1515/1618 27011KT P6SM FEW008 SCT012 BKN200
      TEMPO 1515/1516 BKN010
     FM151630 27006KT P6SM SCT010
     FM151800 29011KT P6SM FEW012
     FM152100 29016G24KT P6SM FEW012
     FM160400 29012KT P6SM FEW012=



000
FTUS46 KMTR 151500 AAA
TAFMRY
TAF AMD
KMRY 151500Z 1515/1612 19004KT P6SM OVC007
      TEMPO 1515/1517 3SM BR OVC004
     FM151800 29009KT P6SM FEW012
     FM160400 24004KT P6SM SCT007
     FM160600 22003KT P6SM OVC005=



000
FTUS46 KMTR 151100
TAFOAK
TAF
KOAK 151124Z 1512/1618 28006KT P6SM OVC010
     FM151800 29005KT P6SM SCT012
     FM152000 29015KT P6SM FEW010
     FM160400 29006KT P6SM FEW010
     FM161200 03004KT P6SM FEW010=



000
FTUS46 KMTR 151100
TAFMRY
TAF
KMRY 151124Z 1512/1612 19004KT P6SM OVC007
     FM151800 29009KT P6SM FEW012
     FM160400 24004KT P6SM SCT007
     FM160600 22003KT P6SM OVC005=



000
FTUS46 KMTR 151100
TAFSNS
TAF
KSNS 151124Z 1512/1612 VRB03KT P6SM OVC007
     FM151700 30005KT P6SM SCT010
     FM151900 30012KT P6SM SKC
     FM160400 29008KT P6SM SCT010
     FM160600 29005KT P6SM SKC=



000
FTUS46 KMTR 151100
TAFSTS
TAF
KSTS 151124Z 1512/1612 VRB03KT 3SM BR OVC003
     FM151700 31012KT P6SM FEW250
     FM160300 30007KT P6SM SKC=



000
FTUS46 KMTR 151100
TAFSJC
TAF
KSJC 151124Z 1512/1612 31006KT P6SM BKN010
     FM151700 VRB03KT P6SM SCT012
     FM151800 32014KT P6SM SKC
     FM160300 31005KT P6SM SKC
     FM160600 VRB03KT P6SM SKC=



000
FTUS46 KMTR 151100
TAFSFO
TAF
KSFO 151124Z 1512/1618 27011KT P6SM BKN010
     FM151630 27006KT P6SM SCT010
     FM151800 29011KT P6SM FEW012
     FM152100 29016G24KT P6SM FEW012
     FM160400 29012KT P6SM FEW012=



000
FTUS46 KMTR 150900 AAB
TAFSFO
TAF AMD
KSFO 150959Z 1510/1612 27011KT P6SM BKN010
     FM151630 27006KT P6SM SCT010
     FM151800 29011KT P6SM FEW012
     FM152100 29016G24KT P6SM FEW012
     FM160400 29012KT P6SM FEW012=



000
FTUS46 KMTR 150900 AAA
TAFSJC
TAF AMD
KSJC 150909Z 1509/1606 31006KT P6SM BKN010
     FM151700 VRB03KT P6SM SCT012
     FM151800 32014KT P6SM SKC
     FM160300 29009KT P6SM SKC=



000
FTUS46 KMTR 150800 AAA
TAFSFO
TAF AMD
KSFO 150843Z 1509/1612 29011KT P6SM FEW010
      TEMPO 1512/1516 BKN010
     FM151800 29011KT P6SM FEW012
     FM152100 29016G24KT P6SM FEW012
     FM160400 29012KT P6SM FEW012=



000
FTUS46 KMTR 150800 AAA
TAFOAK
TAF AMD
KOAK 150833Z 1509/1612 28009KT P6SM SCT010
      TEMPO 1509/1510 BKN010
     FM151000 28006KT P6SM OVC010
     FM151800 29014KT P6SM FEW012
     FM160400 29010KT P6SM FEW010=



000
FTUS46 KMTR 150600 AAA
TAFSTS
TAF AMD
KSTS 150650Z 1507/1606 VRB03KT P6SM BKN004
     FM151700 31012KT P6SM FEW250
     FM160300 30007KT P6SM SKC=



000
FTUS46 KMTR 150500
TAFSJC
TAF
KSJC 150533Z 1506/1606 31009KT P6SM SKC
     FM150700 VRB03KT P6SM SKC
     FM151800 32014KT P6SM SKC
     FM160300 29009KT P6SM SKC=



000
FTUS46 KMTR 150500
TAFSFO
TAF
KSFO 150533Z 1506/1612 29011KT P6SM FEW010
      TEMPO 1510/1514 BKN010
     FM151800 29011KT P6SM FEW012
     FM152100 29016G24KT P6SM FEW012
     FM160400 29012KT P6SM FEW012=



000
FTUS46 KMTR 150500
TAFMRY
TAF
KMRY 150533Z 1506/1606 29006KT P6SM OVC007
     FM151800 29009KT P6SM FEW012
     FM160300 24004KT P6SM BKN009=



000
FTUS46 KMTR 150500
TAFSNS
TAF
KSNS 150533Z 1506/1606 29008KT P6SM OVC007
     FM151800 31012KT P6SM FEW014
     FM160300 29009KT P6SM BKN009=



000
FTUS46 KMTR 150500
TAFOAK
TAF
KOAK 150533Z 1506/1612 30009KT P6SM FEW010
     FM151900 29014KT P6SM FEW012
     FM160400 29010KT P6SM FEW010=



000
FTUS46 KMTR 150500
TAFSTS
TAF
KSTS 150533Z 1506/1606 19006KT P6SM SKC
     FM150800 VRB03KT P6SM SKC
     FM151700 31012KT P6SM FEW250
     FM160300 30007KT P6SM SKC=



000
FTUS46 KMTR 150300 AAA
TAFMRY
TAF AMD
KMRY 150302Z 1503/1524 29006KT P6SM OVC008
     FM151800 29009KT P6SM FEW012=



000
FTUS46 KMTR 150300 AAA
TAFSFO
TAF AMD
KSFO 150302Z 1503/1606 29018G24KT P6SM FEW015
     FM150400 29009KT P6SM FEW010
      TEMPO 1510/1514 BKN010
     FM151800 29011KT P6SM FEW012
     FM152100 29016G24KT P6SM FEW012
     FM160400 29012KT P6SM FEW012=



000
FTUS46 KMTR 142300 RRA
TAFMRY
TAF
KMRY 142346Z 1500/1524 29006KT P6SM FEW012
      TEMPO 1501/1504 BKN010
     FM150400 24004KT P6SM OVC008
     FM151800 29009KT P6SM FEW012=



000
FTUS46 KMTR 142300 RRA
TAFSTS
TAF
KSTS 142346Z 1500/1524 19008KT P6SM SKC
     FM150400 VRB03KT P6SM SKC
     FM151700 31012KT P6SM FEW250=



000
FTUS46 KMTR 142300 RRA
TAFSJC
TAF
KSJC 142346Z 1500/1524 31009KT P6SM SKC
     FM150700 VRB03KT P6SM SKC
     FM151800 32014KT P6SM SKC=



000
FTUS46 KMTR 142300 RRA
TAFSFO
TAF
KSFO 142346Z 1500/1606 29018G24KT P6SM FEW015
     FM150400 29009KT P6SM FEW010
      TEMPO 1510/1514 BKN010
     FM151800 29011KT P6SM FEW012
     FM152100 29016G24KT P6SM FEW012
     FM160400 29012KT P6SM FEW012=



000
FTUS46 KMTR 142300 RRA
TAFSNS
TAF
KSNS 142346Z 1500/1524 29012KT P6SM FEW012
      TEMPO 1501/1504 BKN011
     FM150400 29010KT P6SM OVC009
     FM151800 31012KT P6SM FEW014=



000
FTUS46 KMTR 142300 RRA
TAFOAK
TAF
KOAK 142346Z 1500/1606 29012KT P6SM FEW012
     FM150300 29007KT P6SM FEW010
     FM150600 30009KT P6SM FEW010
     FM151900 29014KT P6SM FEW012
     FM160400 29010KT P6SM FEW010=



000
FTUS46 KMTR 142100 AAE
TAFSNS
TAF AMD
KSNS 142159Z 1422/1518 29012KT P6SM FEW012
     FM150400 29009KT P6SM OVC009=



000
FTUS46 KMTR 142000 AAD
TAFSNS
TAF AMD
KSNS 142047Z 1421/1518 VRB03KT P6SM FEW010
     FM142130 30012KT P6SM FEW012
     FM150400 29009KT P6SM OVC009=



000
FTUS46 KMTR 142000 AAC
TAFSFO
TAF AMD
KSFO 142046Z 1421/1524 06004KT P6SM FEW015
     FM142130 29015KT P6SM FEW015
     FM150400 29009KT P6SM FEW010
     FM150800 29006KT P6SM SCT010
     FM151000 29005KT P6SM BKN010=



000
FTUS46 KMTR 141900 AAC
TAFSNS
TAF AMD
KSNS 141922Z 1419/1518 VRB03KT P6SM FEW008
     FM142030 30012KT P6SM FEW012
     FM150400 29009KT P6SM OVC009=



000
FTUS46 KMTR 141900 AAB
TAFSFO
TAF AMD
KSFO 141908Z 1419/1524 06004KT P6SM FEW015
     FM142030 29015KT P6SM FEW015
     FM150400 29009KT P6SM FEW010
     FM150800 29006KT P6SM SCT010
     FM151000 29005KT P6SM BKN010=



    US Dept of Commerce
    National Oceanic and Atmospheric Administration
    National Weather Service
    1325 East West Highway
    Silver Spring, MD 20910
    Page Author: NWS Internet Services Team
Disclaimer
Information Quality
Credits
Glossary
Privacy Policy
Freedom of Information Act (FOIA)
About Us
Career Opportunities